Time;durP1;ratioP1;P1;durP2;ratioP2;P2;SDS_P1;SDS_P2;PMS_P1;PMS_P2;Temp;Humidity;BMP_temperature;BMP_pressure;BME280_temperature;BME280_humidity;BME280_pressure;Samples;Min_cycle;Max_cycle;Signal;HPM_P1;HPM_P2
2022/05/17 00:01:56;;;;;;;;;;;25.00;45.50;;;;;;5053739;28;19909;-62
2022/05/17 00:04:22;;;;;;;;;;;25.00;45.50;;;;;;5054965;28;20274;-62
2022/05/17 00:06:47;;;;;;;;;;;24.90;45.50;;;;;;5054932;28;19909;-62
2022/05/17 00:09:16;;;;;;;;;;;24.90;45.40;;;;;;5055158;28;19924;-61
2022/05/17 00:11:43;;;;;;;;;;;25.00;45.50;;;;;;5055071;28;20280;-62
2022/05/17 00:14:09;;;;;;;;;;;25.00;45.60;;;;;;5054751;28;20244;-62
2022/05/17 00:16:34;;;;;;;;;;;24.90;45.50;;;;;;5054774;28;19999;-61
2022/05/17 00:19:00;;;;;;;;;;;24.90;45.50;;;;;;5054740;28;19952;-61
2022/05/17 00:21:25;;;;;;;;;;;25.00;45.60;;;;;;5054744;28;19916;-61
2022/05/17 00:23:51;;;;;;;;;;;24.90;45.50;;;;;;5053321;28;19916;-61
2022/05/17 00:26:16;;;;;;;;;;;24.90;45.50;;;;;;5053348;28;19909;-62
2022/05/17 00:28:42;;;;;;;;;;;24.90;45.60;;;;;;5054520;28;19940;-61
2022/05/17 00:31:08;;;;;;;;;;;24.90;45.60;;;;;;5054639;28;20000;-61
2022/05/17 00:33:33;;;;;;;;;;;24.90;45.60;;;;;;5036552;28;19963;-62
2022/05/17 00:35:59;;;;;;;;;;;24.90;45.70;;;;;;5054367;28;19916;-61
2022/05/17 00:38:24;;;;;;;;;;;24.90;45.70;;;;;;5043356;28;19920;-61
2022/05/17 00:40:50;;;;;;;;;;;24.90;46.30;;;;;;5054293;28;19909;-61
2022/05/17 00:43:21;;;;;;;;;;;24.90;45.70;;;;;;5054163;28;19931;-61
2022/05/17 00:45:47;;;;;;;;;;;24.90;45.70;;;;;;5053960;28;20304;-61
2022/05/17 00:48:12;;;;;;;;;;;24.90;45.70;;;;;;5052804;28;19915;-61
2022/05/17 00:50:39;;;;;;;;;;;24.90;45.80;;;;;;5036008;28;19923;-61
2022/05/17 00:53:05;;;;;;;;;;;24.90;45.80;;;;;;5052996;28;20021;-62
2022/05/17 00:56:06;;;;;;;;;;;24.90;45.90;;;;;;5052821;28;19915;-61
2022/05/17 00:58:33;;;;;;;;;;;24.90;45.80;;;;;;5012082;28;20378;-62
2022/05/17 01:01:06;;;;;;;;;;;24.90;45.90;;;;;;5044747;28;19956;-61
2022/05/17 01:03:39;;;;;;;;;;;24.90;45.90;;;;;;5053925;28;19932;-62
2022/05/17 01:06:05;;;;;;;;;;;24.90;45.90;;;;;;5052481;28;19912;-62
2022/05/17 01:08:30;;;;;;;;;;;24.90;46.00;;;;;;5054039;28;19920;-62
2022/05/17 01:10:56;;;;;;;;;;;24.90;46.00;;;;;;5053602;28;20399;-62
2022/05/17 01:16:06;;;;;;;;;;;24.90;46.10;;;;;;5053652;28;19915;-61
2022/05/17 01:18:32;;;;;;;;;;;24.90;46.10;;;;;;5052307;28;20392;-62
2022/05/17 01:20:57;;;;;;;;;;;24.90;46.10;;;;;;5052292;28;20408;-61
2022/05/17 01:23:23;;;;;;;;;;;24.80;46.10;;;;;;5053532;28;19928;-61
2022/05/17 01:25:48;;;;;;;;;;;24.80;46.10;;;;;;5053508;28;19995;-62
2022/05/17 01:28:20;;;;;;;;;;;24.80;46.10;;;;;;5053353;28;19912;-62
2022/05/17 01:30:46;;;;;;;;;;;24.80;46.20;;;;;;5052137;28;19995;-61
2022/05/17 01:33:13;;;;;;;;;;;24.80;46.20;;;;;;5052138;28;19947;-61
2022/05/17 01:35:38;;;;;;;;;;;24.80;46.20;;;;;;5052128;28;19962;-62
2022/05/17 01:38:04;;;;;;;;;;;24.80;46.30;;;;;;5053540;28;19909;-62
2022/05/17 01:40:29;;;;;;;;;;;24.80;46.20;;;;;;5053482;28;20292;-62
2022/05/17 01:42:54;;;;;;;;;;;24.80;46.30;;;;;;5053090;28;20364;-62
2022/05/17 01:45:20;;;;;;;;;;;24.80;46.30;;;;;;5053086;28;19921;-62
2022/05/17 01:47:45;;;;;;;;;;;24.80;46.30;;;;;;5051829;28;19909;-61
2022/05/17 01:50:11;;;;;;;;;;;24.80;46.40;;;;;;5053086;28;19932;-61
2022/05/17 01:52:36;;;;;;;;;;;24.80;46.40;;;;;;5051629;28;19913;-62
2022/05/17 01:55:02;;;;;;;;;;;24.80;46.40;;;;;;5051855;28;19909;-62
2022/05/17 01:57:27;;;;;;;;;;;24.80;46.40;;;;;;5052014;28;19909;-61
2022/05/17 01:59:53;;;;;;;;;;;24.80;46.40;;;;;;5051749;28;20280;-62
2022/05/17 02:02:18;;;;;;;;;;;24.80;46.40;;;;;;5053067;28;20303;-61
2022/05/17 02:04:43;;;;;;;;;;;24.80;46.50;;;;;;5052550;28;20415;-61
2022/05/17 02:07:09;;;;;;;;;;;24.80;46.50;;;;;;5052837;28;20482;-62
2022/05/17 02:09:34;;;;;;;;;;;24.80;46.50;;;;;;5053207;28;20373;-62
2022/05/17 02:12:00;;;;;;;;;;;24.80;46.50;;;;;;5035050;28;19919;-62
2022/05/17 02:14:25;;;;;;;;;;;24.80;46.50;;;;;;5051692;28;19916;-62
2022/05/17 02:16:51;;;;;;;;;;;24.80;46.50;;;;;;5052815;28;19940;-62
2022/05/17 02:19:19;;;;;;;;;;;24.80;46.60;;;;;;5052796;28;19909;-62
2022/05/17 02:21:45;;;;;;;;;;;24.70;46.50;;;;;;5052811;28;20391;-61
2022/05/17 02:24:10;;;;;;;;;;;24.80;46.60;;;;;;5051566;28;19913;-62
2022/05/17 02:26:36;;;;;;;;;;;24.80;46.60;;;;;;5052820;28;19915;-61
2022/05/17 02:29:03;;;;;;;;;;;24.70;46.70;;;;;;5051473;28;19915;-61
2022/05/17 02:31:29;;;;;;;;;;;24.70;46.50;;;;;;5052893;28;19913;-61
2022/05/17 02:33:54;;;;;;;;;;;24.80;46.60;;;;;;5051420;28;19920;-62
2022/05/17 02:36:19;;;;;;;;;;;24.70;46.60;;;;;;5052844;28;20284;-61
2022/05/17 02:38:45;;;;;;;;;;;24.80;46.60;;;;;;5052891;28;20402;-61
2022/05/17 02:41:10;;;;;;;;;;;24.70;46.70;;;;;;5052572;28;19912;-61
2022/05/17 02:43:37;;;;;;;;;;;24.70;46.60;;;;;;5052604;28;20407;-61
2022/05/17 02:46:02;;;;;;;;;;;24.70;47.20;;;;;;5052560;28;19921;-61
2022/05/17 02:48:27;;;;;;;;;;;24.70;46.70;;;;;;5051331;28;19915;-61
2022/05/17 02:50:53;;;;;;;;;;;24.70;46.70;;;;;;5052426;28;20464;-61
2022/05/17 02:53:18;;;;;;;;;;;24.70;46.70;;;;;;5052644;28;20418;-62
2022/05/17 02:55:44;;;;;;;;;;;24.70;46.70;;;;;;5052629;28;20272;-62
2022/05/17 02:58:09;;;;;;;;;;;24.70;46.70;;;;;;5051107;28;20269;-61
2022/05/17 03:00:35;;;;;;;;;;;24.70;46.70;;;;;;5052449;28;20307;-61
2022/05/17 03:03:01;;;;;;;;;;;24.70;46.80;;;;;;5052315;28;19909;-62
2022/05/17 03:05:26;;;;;;;;;;;24.70;46.80;;;;;;5052450;28;20353;-62
2022/05/17 03:07:52;;;;;;;;;;;24.70;46.80;;;;;;5052566;28;19909;-61
2022/05/17 03:10:18;;;;;;;;;;;24.70;46.80;;;;;;5052345;28;19955;-61
2022/05/17 03:12:43;;;;;;;;;;;24.70;46.80;;;;;;5034435;28;20345;-61
2022/05/17 03:15:09;;;;;;;;;;;24.70;46.80;;;;;;5052303;28;19912;-62
2022/05/17 03:17:35;;;;;;;;;;;24.70;47.40;;;;;;5053070;28;19913;-63
2022/05/17 03:20:00;;;;;;;;;;;24.70;46.80;;;;;;5056520;28;19916;-61
2022/05/17 03:22:25;;;;;;;;;;;24.70;46.80;;;;;;5055740;28;19909;-62
2022/05/17 03:24:51;;;;;;;;;;;24.70;46.80;;;;;;5054415;28;20057;-62
2022/05/17 03:27:18;;;;;;;;;;;24.70;46.90;;;;;;5054526;28;19909;-61
2022/05/17 03:29:43;;;;;;;;;;;24.70;46.90;;;;;;5055713;28;19920;-62
2022/05/17 03:32:09;;;;;;;;;;;24.70;46.80;;;;;;5055463;28;19913;-61
2022/05/17 03:34:35;;;;;;;;;;;24.60;46.80;;;;;;5055566;28;19920;-61
2022/05/17 03:37:00;;;;;;;;;;;24.60;46.90;;;;;;5055495;28;19909;-61
2022/05/17 03:39:25;;;;;;;;;;;24.60;46.90;;;;;;5055638;28;19958;-61
2022/05/17 03:41:51;;;;;;;;;;;24.60;46.90;;;;;;5055291;28;19916;-62
2022/05/17 03:44:17;;;;;;;;;;;24.60;47.00;;;;;;5055134;28;19999;-61
2022/05/17 03:46:43;;;;;;;;;;;24.60;47.00;;;;;;5055202;28;19909;-62
2022/05/17 03:49:08;;;;;;;;;;;24.60;47.00;;;;;;5055098;28;19916;-62
2022/05/17 03:51:34;;;;;;;;;;;24.60;47.10;;;;;;5053736;28;19919;-61
2022/05/17 03:54:00;;;;;;;;;;;24.50;46.90;;;;;;5055105;28;20285;-61
2022/05/17 03:56:25;;;;;;;;;;;24.50;47.00;;;;;;5055142;28;19948;-61
2022/05/17 03:58:50;;;;;;;;;;;24.50;47.00;;;;;;5054983;28;19909;-61
2022/05/17 04:01:16;;;;;;;;;;;24.50;47.10;;;;;;5054991;28;19951;-61
2022/05/17 04:03:43;;;;;;;;;;;24.50;47.10;;;;;;5054921;28;19908;-61
2022/05/17 04:06:08;;;;;;;;;;;24.50;47.00;;;;;;5053683;28;20269;-62
2022/05/17 04:08:34;;;;;;;;;;;24.50;47.10;;;;;;5055120;28;19916;-61
2022/05/17 04:11:00;;;;;;;;;;;24.50;47.20;;;;;;5054586;28;19919;-61
2022/05/17 04:13:29;;;;;;;;;;;24.50;47.20;;;;;;5054760;28;20296;-61
2022/05/17 04:15:56;;;;;;;;;;;24.50;47.20;;;;;;5054514;28;19913;-62
2022/05/17 04:18:21;;;;;;;;;;;24.50;47.20;;;;;;5053447;28;20292;-61
2022/05/17 04:20:47;;;;;;;;;;;24.50;47.30;;;;;;5054492;28;19999;-61
2022/05/17 04:23:12;;;;;;;;;;;24.50;47.40;;;;;;5054518;28;19909;-62
2022/05/17 04:25:37;;;;;;;;;;;24.50;47.20;;;;;;5055013;28;19909;-62
2022/05/17 04:28:03;;;;;;;;;;;24.50;48.00;;;;;;5054167;28;19913;-61
2022/05/17 04:30:29;;;;;;;;;;;24.50;47.40;;;;;;5054250;28;19909;-61
2022/05/17 04:32:54;;;;;;;;;;;24.50;47.50;;;;;;5053055;28;19912;-61
2022/05/17 04:35:20;;;;;;;;;;;24.50;47.40;;;;;;5052972;28;19912;-62
2022/05/17 04:37:45;;;;;;;;;;;24.50;47.50;;;;;;5054646;28;19919;-61
2022/05/17 04:40:11;;;;;;;;;;;24.50;47.60;;;;;;5054098;28;20380;-62
2022/05/17 04:42:37;;;;;;;;;;;24.50;47.50;;;;;;5052792;28;20404;-61
2022/05/17 04:45:03;;;;;;;;;;;24.50;47.70;;;;;;5052488;28;19921;-61
2022/05/17 04:47:29;;;;;;;;;;;24.50;47.80;;;;;;5052783;28;20076;-61
2022/05/17 04:49:55;;;;;;;;;;;24.50;47.70;;;;;;5053977;28;20507;-62
2022/05/17 04:52:21;;;;;;;;;;;24.40;47.60;;;;;;5052429;28;19920;-61
2022/05/17 04:54:46;;;;;;;;;;;24.40;47.70;;;;;;5052593;28;20341;-62
2022/05/17 04:57:12;;;;;;;;;;;24.40;47.60;;;;;;5053884;28;19913;-61
2022/05/17 04:59:37;;;;;;;;;;;24.40;47.70;;;;;;5053765;28;19909;-61
2022/05/17 05:02:03;;;;;;;;;;;24.40;47.70;;;;;;5053619;28;19916;-61
2022/05/17 05:04:28;;;;;;;;;;;24.40;47.70;;;;;;5053787;28;20027;-61
2022/05/17 05:06:54;;;;;;;;;;;24.40;47.80;;;;;;5053574;28;19909;-62
2022/05/17 05:09:19;;;;;;;;;;;24.40;48.10;;;;;;5053831;28;19909;-61
2022/05/17 05:11:45;;;;;;;;;;;24.40;47.90;;;;;;5053393;28;19982;-61
2022/05/17 05:14:11;;;;;;;;;;;24.40;47.90;;;;;;5053520;28;19908;-61
2022/05/17 05:16:37;;;;;;;;;;;24.40;48.00;;;;;;5053653;28;19955;-61
2022/05/17 05:19:03;;;;;;;;;;;24.40;48.10;;;;;;5052155;28;19913;-62
2022/05/17 05:21:29;;;;;;;;;;;24.40;47.80;;;;;;5053289;28;19958;-61
2022/05/17 05:23:54;;;;;;;;;;;24.40;48.00;;;;;;5053215;28;20330;-62
2022/05/17 05:26:19;;;;;;;;;;;24.40;47.90;;;;;;5053295;28;19916;-61
2022/05/17 05:28:45;;;;;;;;;;;24.40;47.90;;;;;;5053519;28;19913;-61
2022/05/17 05:31:12;;;;;;;;;;;24.40;48.00;;;;;;5053209;28;20361;-61
2022/05/17 05:33:39;;;;;;;;;;;24.40;48.10;;;;;;5052025;28;19944;-61
2022/05/17 05:36:04;;;;;;;;;;;24.40;48.00;;;;;;5051951;28;19909;-61
2022/05/17 05:38:30;;;;;;;;;;;24.40;48.10;;;;;;5053770;28;19915;-61
2022/05/17 05:40:55;;;;;;;;;;;24.40;48.10;;;;;;5051259;28;19908;-61
2022/05/17 05:43:21;;;;;;;;;;;24.40;48.00;;;;;;5053129;28;19915;-62
2022/05/17 05:45:46;;;;;;;;;;;24.40;48.10;;;;;;5051552;28;19920;-62
2022/05/17 05:48:12;;;;;;;;;;;24.40;48.10;;;;;;5052867;28;20335;-61
2022/05/17 05:50:37;;;;;;;;;;;24.40;48.10;;;;;;5052982;28;19991;-62
2022/05/17 05:53:05;;;;;;;;;;;24.40;48.10;;;;;;5052816;28;19916;-61
2022/05/17 05:55:31;;;;;;;;;;;24.40;48.10;;;;;;5052824;28;19909;-61
2022/05/17 05:57:56;;;;;;;;;;;24.40;48.10;;;;;;5051639;28;19954;-61
2022/05/17 06:00:22;;;;;;;;;;;24.40;48.10;;;;;;5052810;28;19913;-62
2022/05/17 06:02:48;;;;;;;;;;;24.40;48.10;;;;;;5051571;28;20360;-61
2022/05/17 06:05:13;;;;;;;;;;;24.40;48.10;;;;;;5051381;28;19916;-61
2022/05/17 06:07:38;;;;;;;;;;;24.40;48.10;;;;;;5053038;28;19913;-61
2022/05/17 06:10:04;;;;;;;;;;;24.40;48.10;;;;;;5052810;28;19920;-62
2022/05/17 06:12:30;;;;;;;;;;;24.40;48.10;;;;;;5052608;28;20284;-60
2022/05/17 06:14:55;;;;;;;;;;;24.40;48.10;;;;;;5052606;28;20008;-62
2022/05/17 06:17:27;;;;;;;;;;;24.40;48.10;;;;;;5052687;28;19908;-61
2022/05/17 06:19:52;;;;;;;;;;;24.40;48.10;;;;;;5059293;28;19916;-61
2022/05/17 06:22:18;;;;;;;;;;;24.40;48.10;;;;;;5052761;28;19909;-61
2022/05/17 06:24:45;;;;;;;;;;;24.30;48.00;;;;;;5051280;28;20368;-61
2022/05/17 06:27:10;;;;;;;;;;;24.30;48.00;;;;;;5052591;28;19909;-61
2022/05/17 06:29:36;;;;;;;;;;;24.30;48.00;;;;;;5052559;28;19909;-61
2022/05/17 06:32:01;;;;;;;;;;;24.30;48.00;;;;;;5051791;28;19913;-61
2022/05/17 06:34:27;;;;;;;;;;;24.40;48.20;;;;;;5052556;28;19959;-61
2022/05/17 06:36:52;;;;;;;;;;;24.30;48.00;;;;;;5052377;28;19920;-61
2022/05/17 06:39:18;;;;;;;;;;;24.30;48.00;;;;;;5051214;28;19908;-62
2022/05/17 06:41:44;;;;;;;;;;;24.30;48.00;;;;;;5052402;28;19909;-62
2022/05/17 06:44:10;;;;;;;;;;;24.30;48.20;;;;;;5052152;28;19916;-61
2022/05/17 06:46:35;;;;;;;;;;;24.30;48.00;;;;;;5052911;28;19912;-61
2022/05/17 06:49:01;;;;;;;;;;;24.30;48.20;;;;;;5052316;28;20391;-62
2022/05/17 06:51:26;;;;;;;;;;;24.30;48.30;;;;;;5054139;28;19916;-62
2022/05/17 06:53:51;;;;;;;;;;;24.30;48.40;;;;;;5056107;28;19908;-61
2022/05/17 06:56:17;;;;;;;;;;;24.30;48.10;;;;;;5055949;28;19909;-61
2022/05/17 06:58:42;;;;;;;;;;;24.30;48.30;;;;;;5056172;28;19939;-61
2022/05/17 07:01:08;;;;;;;;;;;24.30;48.20;;;;;;5056025;28;19908;-61
2022/05/17 07:03:34;;;;;;;;;;;24.30;48.30;;;;;;5055971;28;19955;-61
2022/05/17 07:05:59;;;;;;;;;;;24.30;48.30;;;;;;5055853;28;19909;-62
2022/05/17 07:08:24;;;;;;;;;;;24.30;48.20;;;;;;5056247;28;19974;-62
2022/05/17 07:13:34;;;;;;;;;;;24.30;48.10;;;;;;5055799;28;19916;-62
2022/05/17 07:15:59;;;;;;;;;;;24.30;48.50;;;;;;5055758;28;19909;-61
2022/05/17 07:18:25;;;;;;;;;;;24.30;48.40;;;;;;5056112;28;19917;-61
2022/05/17 07:20:50;;;;;;;;;;;24.30;48.40;;;;;;5054617;28;20391;-61
2022/05/17 07:23:16;;;;;;;;;;;24.30;48.50;;;;;;5055809;28;19915;-62
2022/05/17 07:25:42;;;;;;;;;;;24.30;48.60;;;;;;5054349;28;19909;-61
2022/05/17 07:28:08;;;;;;;;;;;24.30;48.40;;;;;;5054444;28;19909;-61
2022/05/17 07:30:34;;;;;;;;;;;24.30;48.50;;;;;;5055302;28;19909;-61
2022/05/17 07:32:59;;;;;;;;;;;24.20;48.50;;;;;;5053966;28;19912;-62
2022/05/17 07:35:24;;;;;;;;;;;24.20;48.40;;;;;;5054247;28;19986;-61
2022/05/17 07:37:50;;;;;;;;;;;24.20;48.70;;;;;;5054483;28;19975;-62
2022/05/17 07:40:16;;;;;;;;;;;24.20;48.70;;;;;;5054102;28;19920;-61
2022/05/17 07:42:42;;;;;;;;;;;24.20;48.70;;;;;;5054080;28;19963;-62
2022/05/17 07:45:08;;;;;;;;;;;24.30;48.70;;;;;;5055250;28;19921;-62
2022/05/17 07:47:33;;;;;;;;;;;24.30;48.90;;;;;;5055294;28;19913;-61
2022/05/17 07:49:59;;;;;;;;;;;24.20;48.60;;;;;;5037077;28;20345;-61
2022/05/17 07:52:25;;;;;;;;;;;24.20;48.80;;;;;;5053697;28;19913;-62
2022/05/17 07:54:50;;;;;;;;;;;24.20;48.70;;;;;;5055181;28;19909;-61
2022/05/17 07:57:16;;;;;;;;;;;24.20;48.70;;;;;;5053693;28;20291;-61
2022/05/17 07:59:41;;;;;;;;;;;24.20;48.70;;;;;;5055037;28;19996;-61
2022/05/17 08:02:07;;;;;;;;;;;24.30;48.80;;;;;;5054165;28;19915;-61
2022/05/17 08:04:32;;;;;;;;;;;24.20;48.70;;;;;;5054768;28;20342;-61
2022/05/17 08:06:58;;;;;;;;;;;24.30;48.70;;;;;;5054967;28;19908;-62
2022/05/17 08:09:23;;;;;;;;;;;24.20;48.70;;;;;;5054984;28;19916;-61
2022/05/17 08:11:49;;;;;;;;;;;24.30;49.00;;;;;;5054771;28;19956;-61
2022/05/17 08:14:15;;;;;;;;;;;24.20;49.30;;;;;;5054671;28;19915;-61
2022/05/17 08:16:42;;;;;;;;;;;24.30;48.90;;;;;;5054650;28;20003;-62
2022/05/17 08:19:08;;;;;;;;;;;24.30;48.90;;;;;;5054514;28;19909;-61
2022/05/17 08:21:34;;;;;;;;;;;24.20;48.80;;;;;;5054482;28;20297;-61
2022/05/17 08:23:59;;;;;;;;;;;24.20;49.00;;;;;;5053164;28;19916;-62
2022/05/17 08:29:09;;;;;;;;;;;24.30;48.90;;;;;;5054513;28;19916;-61
2022/05/17 08:31:34;;;;;;;;;;;24.30;48.90;;;;;;5054478;28;20272;-61
2022/05/17 08:34:00;;;;;;;;;;;24.30;49.10;;;;;;5054172;28;19916;-62
2022/05/17 08:36:26;;;;;;;;;;;24.30;48.90;;;;;;5054516;28;20323;-61
2022/05/17 08:38:51;;;;;;;;;;;24.30;48.90;;;;;;5054428;28;19953;-62
2022/05/17 08:41:37;;;;;;;;;;;24.30;49.00;;;;;;5054116;28;19909;-62
2022/05/17 08:44:03;;;;;;;;;;;24.30;48.80;;;;;;5053949;28;19909;-62
2022/05/17 08:46:44;;;;;;;;;;;24.30;48.60;;;;;;5054152;28;19913;-61
2022/05/17 08:49:22;;;;;;;;;;;24.30;48.70;;;;;;5052718;28;19908;-61
2022/05/17 08:51:52;;;;;;;;;;;24.30;48.60;;;;;;5053603;28;19913;-62
2022/05/17 08:54:21;;;;;;;;;;;24.30;48.70;;;;;;5052697;28;20360;-61
2022/05/17 08:56:51;;;;;;;;;;;24.30;48.50;;;;;;5052714;28;19909;-62
2022/05/17 08:59:18;;;;;;;;;;;24.30;48.70;;;;;;5052375;28;19909;-61
2022/05/17 09:01:45;;;;;;;;;;;24.30;48.80;;;;;;5054931;28;20121;-62
2022/05/17 09:04:17;;;;;;;;;;;24.30;48.90;;;;;;5053480;28;20253;-61
2022/05/17 09:06:45;;;;;;;;;;;24.30;49.00;;;;;;5052360;28;20025;-61
2022/05/17 09:09:11;;;;;;;;;;;24.30;49.10;;;;;;5052569;28;20063;-61
2022/05/17 09:11:43;;;;;;;;;;;24.30;48.90;;;;;;5052010;28;20335;-62
2022/05/17 09:14:12;;;;;;;;;;;24.30;48.70;;;;;;5051215;28;19909;-62
2022/05/17 09:16:39;;;;;;;;;;;24.30;48.90;;;;;;5053676;28;19908;-61
2022/05/17 09:19:04;;;;;;;;;;;24.20;49.00;;;;;;5053403;28;19913;-62
2022/05/17 09:21:31;;;;;;;;;;;24.20;49.10;;;;;;5053256;28;19920;-62
2022/05/17 09:23:57;;;;;;;;;;;24.20;49.10;;;;;;5053419;28;20019;-61
2022/05/17 09:26:22;;;;;;;;;;;24.20;49.20;;;;;;5052107;28;19909;-62
2022/05/17 09:28:49;;;;;;;;;;;24.20;49.20;;;;;;5052087;28;19978;-61
2022/05/17 09:31:17;;;;;;;;;;;24.20;49.20;;;;;;5053162;28;19962;-61
2022/05/17 09:33:42;;;;;;;;;;;24.20;49.30;;;;;;5053136;28;19991;-62
2022/05/17 09:36:08;;;;;;;;;;;24.20;49.30;;;;;;5052069;28;20314;-61
2022/05/17 09:38:35;;;;;;;;;;;24.20;49.40;;;;;;5052260;28;19909;-61
2022/05/17 09:41:00;;;;;;;;;;;24.10;49.40;;;;;;5053105;28;19995;-62
2022/05/17 09:43:38;;;;;;;;;;;24.10;49.40;;;;;;5035169;28;19960;-62
2022/05/17 09:46:10;;;;;;;;;;;24.10;49.50;;;;;;5052858;28;19920;-62
2022/05/17 09:54:28;;;;;;;;;;;24.10;49.80;;;;;;5051883;28;19959;-62
2022/05/17 09:56:53;;;;;;;;;;;24.10;49.90;;;;;;5051647;28;19978;-62
2022/05/17 09:59:19;;;;;;;;;;;24.00;50.00;;;;;;5052893;28;19912;-61
2022/05/17 10:01:45;;;;;;;;;;;24.10;49.80;;;;;;5051876;28;20324;-61
2022/05/17 10:04:11;;;;;;;;;;;24.10;50.40;;;;;;5052837;28;19909;-62
2022/05/17 10:06:37;;;;;;;;;;;24.10;49.70;;;;;;5052758;28;20011;-61
2022/05/17 10:09:12;;;;;;;;;;;24.20;49.70;;;;;;5051855;28;19909;-62
2022/05/17 10:11:59;;;;;;;;;;;24.10;49.60;;;;;;5051354;28;19920;-62
2022/05/17 10:14:40;;;;;;;;;;;24.20;49.70;;;;;;5052721;28;19955;-62
2022/05/17 10:17:26;;;;;;;;;;;24.20;49.60;;;;;;5051469;28;19912;-62
2022/05/17 10:19:53;;;;;;;;;;;24.20;49.60;;;;;;5051511;28;19909;-62
2022/05/17 10:22:40;;;;;;;;;;;24.20;49.80;;;;;;5051282;28;19913;-62
2022/05/17 10:25:05;;;;;;;;;;;24.20;49.80;;;;;;5053152;28;20617;-62
2022/05/17 10:27:35;;;;;;;;;;;24.20;49.70;;;;;;5056577;28;19908;-62
2022/05/17 10:30:06;;;;;;;;;;;24.20;49.80;;;;;;5056777;28;19909;-62
2022/05/17 10:32:39;;;;;;;;;;;24.20;49.80;;;;;;5038483;28;19917;-62
2022/05/17 10:35:23;;;;;;;;;;;24.20;49.90;;;;;;5055331;28;20344;-62
2022/05/17 10:37:51;;;;;;;;;;;24.10;49.90;;;;;;5056741;28;19959;-62
2022/05/17 10:40:21;;;;;;;;;;;24.20;50.00;;;;;;5055381;28;19959;-62
2022/05/17 10:42:46;;;;;;;;;;;24.20;49.90;;;;;;5055155;28;19956;-62
2022/05/17 10:45:19;;;;;;;;;;;24.20;49.90;;;;;;5056110;28;19991;-61
2022/05/17 10:48:01;;;;;;;;;;;24.20;49.80;;;;;;5056363;28;19958;-62
2022/05/17 10:50:28;;;;;;;;;;;24.30;49.80;;;;;;5055037;28;19908;-62
2022/05/17 10:53:10;;;;;;;;;;;24.30;49.80;;;;;;5055656;28;20027;-61
2022/05/17 10:55:47;;;;;;;;;;;24.30;49.80;;;;;;5055561;28;19948;-62
2022/05/17 10:58:15;;;;;;;;;;;24.30;49.60;;;;;;5038485;28;19952;-62
2022/05/17 11:00:42;;;;;;;;;;;24.30;49.60;;;;;;5056130;28;19936;-62
2022/05/17 11:03:21;;;;;;;;;;;24.30;49.60;;;;;;5054827;28;19909;-62
2022/05/17 11:05:54;;;;;;;;;;;24.30;49.60;;;;;;5056227;28;20291;-62
2022/05/17 11:08:37;;;;;;;;;;;24.30;49.60;;;;;;5056269;28;19952;-61
2022/05/17 11:11:22;;;;;;;;;;;24.30;49.60;;;;;;5054370;28;19975;-61
2022/05/17 11:13:50;;;;;;;;;;;24.40;49.60;;;;;;5038101;28;19909;-62
2022/05/17 11:16:20;;;;;;;;;;;24.40;49.60;;;;;;5054500;28;19928;-62
2022/05/17 11:18:48;;;;;;;;;;;24.40;49.60;;;;;;5054502;28;20295;-62
2022/05/17 11:21:18;;;;;;;;;;;24.40;49.60;;;;;;5055608;28;19916;-62
2022/05/17 11:23:46;;;;;;;;;;;24.40;49.60;;;;;;5054443;28;19963;-62
2022/05/17 11:26:18;;;;;;;;;;;24.40;49.70;;;;;;5054309;28;19916;-62
2022/05/17 11:29:12;;;;;;;;;;;24.40;49.60;;;;;;5055689;28;19908;-62
2022/05/17 11:31:50;;;;;;;;;;;24.40;49.60;;;;;;5046212;28;20310;-62
2022/05/17 11:34:26;;;;;;;;;;;24.40;49.70;;;;;;5055228;28;19909;-62
2022/05/17 11:36:55;;;;;;;;;;;24.40;49.60;;;;;;5054969;28;19944;-62
2022/05/17 11:39:39;;;;;;;;;;;24.40;49.60;;;;;;5054159;28;19994;-62
2022/05/17 11:42:07;;;;;;;;;;;24.40;49.60;;;;;;5061906;28;19908;-62
2022/05/17 11:44:43;;;;;;;;;;;24.50;49.60;;;;;;5053867;28;19917;-62
2022/05/17 11:47:26;;;;;;;;;;;24.50;49.70;;;;;;5055233;28;19909;-62
2022/05/17 11:49:52;;;;;;;;;;;24.40;49.60;;;;;;5053687;28;20284;-61
2022/05/17 11:52:23;;;;;;;;;;;24.50;49.70;;;;;;5053758;28;19917;-62
2022/05/17 11:54:49;;;;;;;;;;;24.40;49.70;;;;;;5053865;28;20378;-62
2022/05/17 11:57:21;;;;;;;;;;;24.50;49.70;;;;;;5054955;28;19994;-61
2022/05/17 11:59:55;;;;;;;;;;;24.50;49.70;;;;;;5054997;28;19920;-62
2022/05/17 12:02:25;;;;;;;;;;;24.50;49.60;;;;;;5054821;28;20361;-63
2022/05/17 12:04:50;;;;;;;;;;;24.50;49.60;;;;;;5053595;28;19909;-62
2022/05/17 12:07:20;;;;;;;;;;;24.50;49.80;;;;;;5053507;28;19915;-62
2022/05/17 12:09:49;;;;;;;;;;;24.50;49.80;;;;;;5053956;28;19919;-62
2022/05/17 12:12:24;;;;;;;;;;;24.50;49.90;;;;;;5054714;28;19920;-62
2022/05/17 12:14:51;;;;;;;;;;;24.40;49.80;;;;;;5054787;28;19996;-61
2022/05/17 12:17:19;;;;;;;;;;;24.40;49.80;;;;;;5054666;28;20285;-62
2022/05/17 12:19:45;;;;;;;;;;;24.40;49.80;;;;;;5054707;28;19909;-62
2022/05/17 12:22:13;;;;;;;;;;;24.50;49.90;;;;;;5054458;28;20003;-62
2022/05/17 12:24:40;;;;;;;;;;;24.50;49.80;;;;;;5053223;28;19908;-61
2022/05/17 12:27:13;;;;;;;;;;;24.50;49.80;;;;;;5053233;28;19913;-62
2022/05/17 12:32:25;;;;;;;;;;;24.50;49.80;;;;;;5053343;28;19962;-62
2022/05/17 12:34:51;;;;;;;;;;;24.50;49.80;;;;;;5054247;28;19912;-62
2022/05/17 12:37:16;;;;;;;;;;;24.50;49.80;;;;;;5054072;28;20360;-62
2022/05/17 12:45:18;;;;;;;;;;;24.50;49.70;;;;;;5052882;28;19927;-62
2022/05/17 12:47:48;;;;;;;;;;;24.50;49.70;;;;;;5052693;28;19919;-62
2022/05/17 12:50:14;;;;;;;;;;;24.50;49.80;;;;;;5053852;28;20349;-62
2022/05/17 12:52:41;;;;;;;;;;;24.50;49.70;;;;;;5052793;28;20368;-61
2022/05/17 12:55:11;;;;;;;;;;;24.50;49.80;;;;;;5053053;28;22274;-61
2022/05/17 12:57:38;;;;;;;;;;;24.50;49.80;;;;;;5052641;28;19913;-62
2022/05/17 13:00:29;;;;;;;;;;;24.50;49.90;;;;;;5053568;28;19909;-62
2022/05/17 13:03:01;;;;;;;;;;;24.50;50.00;;;;;;5048456;28;19920;-62
2022/05/17 13:05:41;;;;;;;;;;;24.50;49.90;;;;;;5054139;28;19908;-62
2022/05/17 13:08:08;;;;;;;;;;;24.50;49.80;;;;;;5053871;28;19952;-62
2022/05/17 13:10:35;;;;;;;;;;;24.50;49.90;;;;;;5052277;28;20284;-62
2022/05/17 13:13:17;;;;;;;;;;;24.50;49.90;;;;;;5053614;28;20456;-62
2022/05/17 13:15:43;;;;;;;;;;;24.50;49.90;;;;;;5052391;28;19999;-62
2022/05/17 13:18:10;;;;;;;;;;;24.50;49.90;;;;;;5052172;28;19908;-62
2022/05/17 13:20:37;;;;;;;;;;;24.50;49.90;;;;;;5053583;28;19909;-62
2022/05/17 13:23:03;;;;;;;;;;;24.50;49.90;;;;;;5052341;28;19909;-62
2022/05/17 13:25:39;;;;;;;;;;;24.50;49.90;;;;;;5052062;28;19998;-62
2022/05/17 13:28:04;;;;;;;;;;;24.60;50.00;;;;;;5052023;28;19931;-61
2022/05/17 13:30:31;;;;;;;;;;;24.50;50.00;;;;;;5053279;28;19909;-62
2022/05/17 13:32:58;;;;;;;;;;;24.50;50.00;;;;;;5053059;28;19916;-62
2022/05/17 13:35:24;;;;;;;;;;;24.50;50.00;;;;;;5053282;28;19916;-62
2022/05/17 13:38:06;;;;;;;;;;;24.60;50.10;;;;;;5052246;28;19909;-62
2022/05/17 13:40:41;;;;;;;;;;;24.50;50.00;;;;;;5051788;28;19959;-62
2022/05/17 13:43:21;;;;;;;;;;;24.50;50.10;;;;;;5053017;28;20007;-62
2022/05/17 13:46:00;;;;;;;;;;;24.50;50.10;;;;;;5052877;28;19974;-62
2022/05/17 13:48:26;;;;;;;;;;;24.60;50.10;;;;;;5051778;28;19913;-62
2022/05/17 13:50:52;;;;;;;;;;;24.50;50.00;;;;;;5052873;28;19953;-62
2022/05/17 13:53:18;;;;;;;;;;;24.60;50.20;;;;;;5051745;28;20330;-62
2022/05/17 13:55:43;;;;;;;;;;;24.60;50.10;;;;;;5051794;28;20347;-62
2022/05/17 13:58:09;;;;;;;;;;;24.60;50.20;;;;;;5052834;28;19956;-62
2022/05/17 14:00:36;;;;;;;;;;;24.60;50.10;;;;;;5050884;28;19909;-61
2022/05/17 14:03:18;;;;;;;;;;;24.50;50.10;;;;;;5052803;28;19920;-61
2022/05/17 14:05:58;;;;;;;;;;;24.50;50.30;;;;;;5051816;28;19909;-62
2022/05/17 14:13:57;;;;;;;;;;;24.50;50.40;;;;;;5051866;28;20399;-61
2022/05/17 14:16:23;;;;;;;;;;;24.50;50.40;;;;;;5052725;28;19908;-62
2022/05/17 14:18:48;;;;;;;;;;;24.50;50.40;;;;;;5051604;28;19913;-62
2022/05/17 14:21:17;;;;;;;;;;;24.60;50.50;;;;;;5051490;28;19909;-61
2022/05/17 14:23:42;;;;;;;;;;;24.60;50.50;;;;;;5052779;28;19908;-62
2022/05/17 14:26:08;;;;;;;;;;;24.60;50.40;;;;;;5051543;28;20360;-62
2022/05/17 14:28:33;;;;;;;;;;;24.70;50.40;;;;;;5052736;28;19909;-61
2022/05/17 14:30:59;;;;;;;;;;;24.70;50.30;;;;;;5052674;28;19916;-62
2022/05/17 14:33:24;;;;;;;;;;;24.60;50.30;;;;;;5051388;28;19909;-62
2022/05/17 14:35:50;;;;;;;;;;;24.60;50.40;;;;;;5052723;28;20376;-62
2022/05/17 14:38:15;;;;;;;;;;;24.60;50.30;;;;;;5052835;28;19917;-62
2022/05/17 14:40:41;;;;;;;;;;;24.60;50.40;;;;;;5051228;28;19909;-62
2022/05/17 14:43:06;;;;;;;;;;;24.60;50.30;;;;;;5051355;28;20004;-62
2022/05/17 14:45:32;;;;;;;;;;;24.60;50.40;;;;;;5052521;28;19921;-61
2022/05/17 14:47:57;;;;;;;;;;;24.60;50.60;;;;;;5052437;28;19913;-62